createdAt,value
2023-03-31T00:03:10.192Z,66.80
2023-03-31T00:08:14.217Z,66.70
2023-03-31T00:13:16.062Z,66.60
2023-03-31T00:18:17.878Z,66.60
2023-03-31T00:23:27.593Z,66.70
2023-03-31T00:28:29.543Z,66.60
2023-03-31T00:33:31.378Z,66.70
2023-03-31T00:38:33.482Z,66.60
2023-03-31T00:43:36.921Z,66.60
2023-03-31T00:48:47.634Z,66.60
2023-03-31T00:53:55.465Z,66.60
2023-03-31T00:58:59.742Z,66.50
2023-03-31T01:04:02.682Z,66.50
2023-03-31T01:09:07.130Z,66.50
2023-03-31T01:14:09.860Z,66.60
2023-03-31T01:19:17.702Z,66.50
2023-03-31T01:24:25.473Z,66.50
2023-03-31T01:29:46.194Z,66.50
2023-03-31T01:35:06.836Z,66.50
2023-03-31T01:40:27.022Z,66.50
2023-03-31T01:45:29.223Z,66.50
2023-03-31T01:50:48.162Z,66.40
2023-03-31T01:56:10.144Z,66.50
2023-03-31T02:01:11.826Z,66.50
2023-03-31T02:06:16.296Z,66.40
2023-03-31T02:11:21.069Z,66.40
2023-03-31T02:16:26.410Z,66.40
2023-03-31T02:21:29.535Z,66.40
2023-03-31T02:26:34.113Z,66.50
2023-03-31T02:31:39.197Z,66.50
2023-03-31T02:36:42.231Z,66.50
2023-03-31T02:41:43.943Z,66.40
2023-03-31T02:46:46.074Z,66.40
2023-03-31T02:52:06.545Z,66.40
2023-03-31T02:57:14.039Z,66.40
2023-03-31T03:02:26.631Z,66.40
2023-03-31T03:07:37.636Z,66.40
2023-03-31T03:12:53.908Z,66.40
2023-03-31T03:17:56.049Z,66.40
2023-03-31T03:22:57.674Z,66.40
2023-03-31T03:27:59.456Z,66.40
2023-03-31T03:33:01.126Z,66.50
2023-03-31T03:38:02.873Z,66.40
2023-03-31T03:43:04.536Z,66.50
2023-03-31T05:06:33.551Z,66.40
2023-03-31T05:11:35.281Z,66.30
2023-03-31T05:16:37.210Z,66.30
2023-03-31T05:21:38.907Z,66.40
2023-03-31T05:26:41.269Z,66.50
2023-03-31T05:31:42.948Z,66.60
2023-03-31T05:36:44.918Z,66.70
2023-03-31T05:41:46.912Z,66.80
2023-03-31T05:46:49.188Z,66.90
2023-03-31T05:51:51.796Z,67.10
2023-03-31T05:56:53.544Z,67.40
2023-03-31T06:01:55.558Z,68.10
2023-03-31T06:06:58.127Z,69.00
2023-03-31T06:11:59.746Z,69.00
2023-03-31T06:17:01.592Z,69.30
2023-03-31T06:22:03.211Z,68.80
2023-03-31T06:27:06.478Z,68.60
2023-03-31T06:32:08.263Z,68.50
2023-03-31T06:37:10.063Z,68.50
2023-03-31T06:42:11.947Z,68.40
2023-03-31T06:47:13.650Z,68.30
2023-03-31T06:52:15.772Z,68.30
2023-03-31T06:57:17.656Z,68.30
2023-03-31T07:02:19.805Z,68.30
2023-03-31T07:07:21.546Z,68.20
2023-03-31T07:12:23.214Z,68.10
2023-03-31T07:17:25.425Z,68.00
2023-03-31T07:22:27.058Z,68.00
2023-03-31T07:27:28.617Z,68.20
2023-03-31T07:32:30.284Z,68.00
2023-03-31T07:37:38.394Z,67.90
2023-03-31T07:42:40.080Z,67.80
2023-03-31T07:47:43.229Z,67.60
2023-03-31T07:52:46.900Z,67.50
2023-03-31T07:57:49.091Z,67.60
2023-03-31T08:02:50.764Z,68.20
2023-03-31T08:07:52.699Z,68.20
2023-03-31T08:12:54.572Z,67.80
2023-03-31T08:17:56.248Z,67.70
2023-03-31T08:22:58.107Z,67.50
2023-03-31T08:27:59.904Z,67.50
2023-03-31T08:33:01.910Z,67.60
2023-03-31T08:38:03.825Z,67.60
2023-03-31T08:43:11.032Z,67.60
2023-03-31T08:48:25.891Z,67.60
2023-03-31T08:53:27.616Z,67.60
2023-03-31T08:58:29.345Z,67.60
2023-03-31T09:03:45.839Z,67.50
2023-03-31T09:08:47.746Z,67.60
2023-03-31T09:14:01.869Z,67.80
2023-03-31T09:19:03.458Z,67.70
2023-03-31T09:24:08.448Z,67.60
2023-03-31T09:29:19.194Z,67.50
2023-03-31T09:34:31.992Z,67.60
2023-03-31T09:39:33.893Z,67.60
2023-03-31T09:44:35.456Z,67.60
2023-03-31T09:49:37.588Z,67.80
2023-03-31T09:54:43.904Z,67.80
2023-03-31T09:59:50.407Z,67.70
2023-03-31T10:04:52.423Z,67.70
2023-03-31T10:09:54.978Z,67.60
2023-03-31T10:15:03.915Z,67.90
2023-03-31T10:20:17.636Z,67.80
2023-03-31T10:25:24.556Z,67.70
2023-03-31T10:30:26.731Z,67.60
2023-03-31T10:35:35.693Z,67.30
2023-03-31T10:40:37.759Z,66.90
2023-03-31T10:45:49.791Z,66.70
2023-03-31T10:50:51.743Z,66.50
2023-03-31T10:55:59.008Z,66.40
2023-03-31T11:01:08.292Z,66.60
2023-03-31T11:06:20.511Z,66.60
2023-03-31T11:11:42.893Z,66.70
2023-03-31T11:16:47.624Z,66.80
2023-03-31T11:22:05.846Z,66.80
2023-03-31T11:27:24.741Z,66.90
2023-03-31T11:32:45.618Z,66.90
2023-03-31T11:37:53.449Z,66.90
2023-03-31T11:42:57.488Z,67.10
2023-03-31T11:48:04.962Z,67.10
2023-03-31T11:53:15.789Z,67.10
2023-03-31T11:58:21.498Z,67.10
2023-03-31T12:03:55.946Z,67.10
2023-03-31T12:09:04.579Z,67.10
2023-03-31T12:14:06.163Z,67.20
2023-03-31T12:19:23.308Z,68.20
2023-03-31T12:24:25.095Z,67.30
2023-03-31T12:29:31.898Z,67.30
2023-03-31T12:34:36.044Z,67.30
2023-03-31T12:39:49.941Z,67.30
2023-03-31T12:45:21.208Z,67.40
2023-03-31T12:50:35.230Z,67.30
2023-03-31T12:55:38.121Z,67.50
2023-03-31T13:00:59.826Z,67.70
2023-03-31T13:06:02.480Z,68.30
2023-03-31T13:11:04.501Z,70.90
2023-03-31T13:16:06.294Z,71.10
2023-03-31T13:21:09.288Z,70.60
2023-03-31T13:26:31.472Z,70.20
2023-03-31T13:31:53.176Z,70.30
2023-03-31T13:37:08.479Z,70.00
2023-03-31T13:42:28.991Z,69.90
2023-03-31T13:47:46.922Z,69.80
2023-03-31T13:52:57.911Z,69.70
2023-03-31T13:58:32.857Z,69.70
2023-03-31T14:03:57.032Z,69.70
2023-03-31T14:09:01.967Z,70.60
2023-03-31T14:14:12.576Z,69.70
2023-03-31T14:19:39.452Z,69.80
2023-03-31T14:24:58.975Z,69.80
2023-03-31T14:30:27.498Z,69.60
2023-03-31T14:35:39.438Z,70.00
2023-03-31T14:40:48.828Z,69.90
2023-03-31T14:46:01.051Z,69.90
2023-03-31T14:51:03.907Z,69.90
2023-03-31T14:56:11.429Z,70.30
2023-03-31T15:01:17.433Z,70.00
2023-03-31T15:06:19.522Z,69.60
2023-03-31T15:11:22.052Z,69.50
2023-03-31T15:16:31.605Z,69.50
2023-03-31T15:21:36.750Z,70.20
2023-03-31T15:26:42.050Z,69.60
2023-03-31T15:31:44.955Z,69.40
2023-03-31T15:36:46.989Z,69.20
2023-03-31T15:41:49.707Z,69.50
2023-03-31T15:47:01.737Z,68.90
2023-03-31T15:52:03.560Z,71.70
2023-03-31T15:57:06.229Z,73.10
2023-03-31T16:02:11.120Z,74.90
2023-03-31T16:07:23.458Z,75.00
2023-03-31T16:12:31.724Z,74.00
2023-03-31T16:17:47.373Z,73.90
2023-03-31T16:22:50.660Z,74.50
2023-03-31T16:27:56.546Z,74.70
2023-03-31T16:33:00.971Z,75.90
2023-03-31T16:38:04.883Z,75.70
2023-03-31T16:43:16.920Z,74.70
2023-03-31T16:48:19.995Z,73.50
2023-03-31T16:53:23.024Z,73.30
2023-03-31T16:58:25.033Z,72.70
2023-03-31T17:03:27.650Z,72.30
2023-03-31T17:08:29.549Z,72.50
2023-03-31T17:13:32.466Z,72.20
2023-03-31T17:18:34.543Z,72.00
2023-03-31T17:23:37.353Z,72.20
2023-03-31T17:28:39.282Z,72.90
2023-03-31T17:33:41.887Z,74.50
2023-03-31T17:38:43.816Z,73.90
2023-03-31T17:43:46.150Z,73.80
2023-03-31T17:48:48.690Z,73.40
2023-03-31T17:53:50.836Z,73.40
2023-03-31T17:58:52.747Z,73.50
2023-03-31T18:03:57.812Z,73.20
2023-03-31T18:09:00.017Z,73.30
2023-03-31T18:14:02.748Z,73.30
2023-03-31T18:19:04.628Z,73.40
2023-03-31T18:24:06.370Z,73.30
2023-03-31T18:29:08.101Z,73.10
2023-03-31T18:34:09.971Z,73.10
2023-03-31T18:39:11.915Z,73.00
2023-03-31T18:44:16.905Z,73.10
2023-03-31T18:49:20.284Z,73.50
2023-03-31T18:54:22.640Z,73.50
2023-03-31T18:59:24.268Z,75.00
2023-03-31T19:04:27.115Z,73.60
2023-03-31T19:09:29.033Z,73.40
2023-03-31T19:14:30.748Z,73.60
2023-03-31T19:19:32.666Z,73.70
2023-03-31T19:24:34.458Z,74.10
2023-03-31T19:29:36.345Z,74.60
2023-03-31T19:34:38.531Z,74.60
2023-03-31T19:39:40.392Z,77.00
2023-03-31T19:44:45.832Z,75.20
2023-03-31T19:49:47.662Z,76.20
2023-03-31T19:54:49.867Z,74.90
2023-03-31T19:59:51.569Z,74.70
2023-03-31T20:04:53.390Z,74.50
2023-03-31T20:09:55.180Z,74.50
2023-03-31T20:14:56.734Z,74.60
2023-03-31T20:19:59.524Z,75.60
2023-03-31T20:25:01.432Z,75.30
2023-03-31T20:30:03.192Z,75.20
2023-03-31T20:35:06.678Z,75.20
2023-03-31T20:40:08.598Z,75.20
2023-03-31T20:45:10.161Z,75.10
2023-03-31T20:50:12.208Z,75.00
2023-03-31T20:55:13.864Z,74.90
2023-03-31T21:00:15.775Z,74.70
2023-03-31T21:05:18.567Z,74.70
2023-03-31T21:10:20.432Z,74.60
2023-03-31T21:15:22.049Z,74.50
2023-03-31T21:20:23.725Z,74.50
2023-03-31T21:25:25.720Z,74.20
2023-03-31T21:30:28.265Z,74.10
2023-03-31T21:35:31.637Z,73.90
2023-03-31T21:40:34.982Z,73.90
2023-03-31T21:45:39.334Z,73.70
2023-03-31T21:50:41.499Z,73.60
2023-03-31T21:55:44.687Z,73.40
2023-03-31T22:00:46.987Z,73.20
2023-03-31T22:05:49.036Z,73.10
2023-03-31T22:10:52.044Z,73.10
2023-03-31T22:15:54.055Z,73.00
2023-03-31T22:20:56.872Z,72.90
2023-03-31T22:25:58.655Z,72.90
2023-03-31T22:31:00.661Z,73.80
2023-03-31T22:36:02.399Z,72.70
2023-03-31T22:41:04.583Z,72.70
2023-03-31T22:46:07.014Z,72.70
2023-03-31T22:51:11.829Z,72.60
2023-03-31T22:56:13.685Z,72.50
2023-03-31T23:01:17.025Z,72.40
2023-03-31T23:06:19.380Z,72.40
2023-03-31T23:11:20.995Z,72.40
2023-03-31T23:16:23.785Z,72.40
2023-03-31T23:21:27.037Z,72.30
2023-03-31T23:26:29.706Z,72.20
2023-03-31T23:31:32.715Z,72.20
2023-03-31T23:36:34.458Z,72.10
2023-03-31T23:41:36.419Z,72.10
2023-03-31T23:46:39.446Z,72.00
2023-03-31T23:51:41.143Z,72.00
2023-03-31T23:56:42.775Z,71.90
